createdAt,value
2023-04-08T00:01:06.877Z,18.45
2023-04-08T00:03:33.863Z,18.08
2023-04-08T00:06:02.771Z,18.52
2023-04-08T00:08:29.619Z,17.10
2023-04-08T00:10:56.856Z,16.85
2023-04-08T00:13:24.037Z,18.45
2023-04-08T00:15:51.149Z,18.10
2023-04-08T00:18:17.983Z,16.98
2023-04-08T00:20:45.224Z,15.98
2023-04-08T00:23:12.328Z,17.17
2023-04-08T00:25:39.527Z,16.35
2023-04-08T00:28:06.513Z,15.25
2023-04-08T00:30:34.818Z,17.23
2023-04-08T00:33:01.968Z,16.67
2023-04-08T00:35:29.519Z,17.05
2023-04-08T00:37:56.603Z,15.85
2023-04-08T00:40:23.383Z,16.67
2023-04-08T00:42:50.681Z,17.33
2023-04-08T00:45:17.873Z,15.48
2023-04-08T00:47:44.885Z,17.17
2023-04-08T00:50:12.157Z,16.23
2023-04-08T00:52:39.308Z,15.68
2023-04-08T00:55:07.050Z,16.65
2023-04-08T00:57:34.089Z,18.00
2023-04-08T01:00:01.092Z,17.73
2023-04-08T01:02:57.887Z,16.83
2023-04-08T01:05:30.908Z,17.58
2023-04-08T01:08:02.126Z,17.25
2023-04-08T01:10:35.146Z,19.42
2023-04-08T01:15:33.519Z,17.85
2023-04-08T01:18:02.361Z,18.15
2023-04-08T01:20:29.933Z,18.42
2023-04-08T01:23:30.276Z,19.75
2023-04-08T01:25:57.780Z,19.10
2023-04-08T01:28:28.248Z,20.05
2023-04-08T01:31:00.609Z,19.80
2023-04-08T01:33:29.232Z,20.80
2023-04-08T01:35:57.592Z,20.05
2023-04-08T01:38:26.630Z,20.77
2023-04-08T01:40:56.136Z,22.10
2023-04-08T01:43:24.924Z,20.88
2023-04-08T01:45:58.589Z,20.92
2023-04-08T01:48:27.089Z,21.13
2023-04-08T01:50:55.965Z,21.95
2023-04-08T01:53:23.148Z,23.02
2023-04-08T01:55:55.728Z,22.02
2023-04-08T01:58:25.192Z,21.63
2023-04-08T02:00:54.480Z,23.33
2023-04-08T02:03:24.314Z,23.95
2023-04-08T02:05:51.274Z,23.15
2023-04-08T02:08:18.222Z,23.63
2023-04-08T02:10:45.029Z,23.95
2023-04-08T02:13:12.206Z,25.17
2023-04-08T02:15:46.719Z,23.52
2023-04-08T02:18:21.034Z,25.38
2023-04-08T02:20:54.759Z,25.42
2023-04-08T02:23:25.247Z,25.60
2023-04-08T02:25:55.842Z,24.45
2023-04-08T02:28:23.837Z,26.80
2023-04-08T02:30:52.909Z,25.17
2023-04-08T02:33:22.588Z,27.10
2023-04-08T02:35:52.459Z,25.70
2023-04-08T02:38:19.687Z,26.85
2023-04-08T02:40:46.498Z,28.35
2023-04-08T02:43:13.401Z,27.58
2023-04-08T02:45:42.829Z,27.90
2023-04-08T02:48:10.314Z,28.63
2023-04-08T02:50:37.584Z,29.90
2023-04-08T02:53:04.961Z,28.00
2023-04-08T02:55:31.754Z,28.25
2023-04-08T02:57:58.692Z,31.10
2023-04-08T03:00:25.893Z,30.15
2023-04-08T03:02:53.142Z,31.70
2023-04-08T03:05:20.150Z,30.67
2023-04-08T03:07:46.951Z,34.20
2023-04-08T03:10:13.898Z,31.23
2023-04-08T03:12:40.896Z,31.02
2023-04-08T03:15:08.539Z,32.53
2023-04-08T03:17:35.824Z,30.58
2023-04-08T03:20:05.266Z,33.00
2023-04-08T03:22:33.176Z,31.75
2023-04-08T03:25:00.426Z,31.70
2023-04-08T03:27:27.524Z,32.40
2023-04-08T03:29:54.437Z,32.17
2023-04-08T03:32:21.785Z,29.35
2023-04-08T03:34:51.140Z,32.13
2023-04-08T03:37:18.728Z,31.08
2023-04-08T03:39:46.740Z,32.00
2023-04-08T03:42:13.628Z,32.05
2023-04-08T03:44:40.648Z,31.25
2023-04-08T03:47:07.502Z,32.83
2023-04-08T03:49:34.525Z,32.50
2023-04-08T03:52:01.631Z,32.72
2023-04-08T03:54:28.804Z,32.25
2023-04-08T03:56:55.862Z,32.00
2023-04-08T03:59:23.226Z,30.10
2023-04-08T04:01:51.433Z,31.80
2023-04-08T04:04:18.534Z,34.08
2023-04-08T04:06:45.731Z,33.38
2023-04-08T04:09:12.749Z,35.03
2023-04-08T04:11:39.504Z,32.97
2023-04-08T04:14:06.567Z,35.47
2023-04-08T04:16:33.389Z,34.83
2023-04-08T04:19:00.424Z,34.65
2023-04-08T04:21:27.392Z,35.35
2023-04-08T04:23:54.230Z,35.55
2023-04-08T04:26:21.293Z,36.33
2023-04-08T04:28:48.643Z,35.88
2023-04-08T04:31:23.975Z,36.50
2023-04-08T04:33:50.822Z,36.67
2023-04-08T04:36:17.906Z,35.35
2023-04-08T04:38:46.172Z,39.10
2023-04-08T04:41:13.710Z,37.45
2023-04-08T04:43:41.159Z,38.88
2023-04-08T04:46:09.180Z,40.05
2023-04-08T04:48:36.467Z,39.05
2023-04-08T04:51:03.890Z,36.88
2023-04-08T04:53:31.917Z,38.58
2023-04-08T04:56:01.594Z,38.80
2023-04-08T04:58:28.803Z,39.05
2023-04-08T05:00:56.798Z,39.35
2023-04-08T05:03:23.900Z,38.00
2023-04-08T05:05:54.432Z,41.38
2023-04-08T05:08:22.508Z,39.28
2023-04-08T05:10:52.009Z,39.30
2023-04-08T05:13:19.328Z,38.45
2023-04-08T05:15:46.518Z,39.95
2023-04-08T05:18:13.493Z,39.33
2023-04-08T05:20:40.759Z,40.30
2023-04-08T05:23:08.132Z,37.58
2023-04-08T05:25:35.073Z,38.60
2023-04-08T05:28:02.237Z,41.17
2023-04-08T05:30:29.369Z,36.88
2023-04-08T05:32:59.311Z,39.47
2023-04-08T05:35:27.278Z,38.05
2023-04-08T05:37:54.522Z,39.20
2023-04-08T05:40:21.569Z,42.70
2023-04-08T05:42:48.420Z,39.65
2023-04-08T05:45:16.385Z,39.78
2023-04-08T05:47:43.678Z,40.10
2023-04-08T05:50:11.685Z,40.50
2023-04-08T05:52:44.030Z,42.45
2023-04-08T05:55:11.960Z,41.15
2023-04-08T05:57:38.757Z,40.92
2023-04-08T06:00:08.608Z,42.55
2023-04-08T06:02:36.662Z,40.90
2023-04-08T06:05:04.861Z,41.85
2023-04-08T06:07:33.016Z,41.38
2023-04-08T06:10:00.180Z,42.08
2023-04-08T06:12:27.287Z,40.40
2023-04-08T06:14:57.393Z,41.55
2023-04-08T06:17:24.737Z,41.10
2023-04-08T06:19:51.957Z,41.13
2023-04-08T06:22:19.159Z,40.58
2023-04-08T06:24:48.320Z,39.15
2023-04-08T06:27:16.046Z,40.53
2023-04-08T06:29:43.382Z,39.85
2023-04-08T06:32:10.913Z,37.88
2023-04-08T06:34:38.254Z,39.42
2023-04-08T06:37:06.482Z,40.13
2023-04-08T06:39:33.779Z,38.67
2023-04-08T06:42:00.582Z,37.92
2023-04-08T06:44:27.643Z,37.10
2023-04-08T06:46:54.495Z,38.97
2023-04-08T06:49:21.686Z,40.10
2023-04-08T06:51:49.175Z,37.50
2023-04-08T06:54:15.957Z,37.45
2023-04-08T06:56:43.365Z,35.63
2023-04-08T06:59:10.451Z,37.08
2023-04-08T07:01:37.664Z,37.92
2023-04-08T07:04:04.867Z,37.85
2023-04-08T07:06:32.422Z,37.03
2023-04-08T07:08:59.190Z,36.88
2023-04-08T07:11:26.770Z,38.50
2023-04-08T07:13:53.905Z,40.42
2023-04-08T07:16:21.567Z,41.33
2023-04-08T07:18:49.290Z,40.42
2023-04-08T07:21:18.378Z,40.05
2023-04-08T07:23:45.741Z,38.03
2023-04-08T07:26:12.850Z,39.80
2023-04-08T07:28:41.357Z,39.17
2023-04-08T07:31:16.209Z,40.58
2023-04-08T07:33:44.472Z,39.22
2023-04-08T07:36:12.975Z,38.63
2023-04-08T07:38:40.949Z,39.53
2023-04-08T07:41:08.013Z,37.47
2023-04-08T07:43:37.015Z,36.97
2023-04-08T07:46:05.812Z,38.47
2023-04-08T07:48:33.914Z,38.58
2023-04-08T07:51:08.502Z,37.97
2023-04-08T07:53:37.731Z,37.65
2023-04-08T07:56:11.665Z,39.78
2023-04-08T07:58:38.751Z,39.33
2023-04-08T08:01:06.486Z,37.53
2023-04-08T08:03:34.150Z,36.25
2023-04-08T08:06:01.813Z,35.70
2023-04-08T08:08:28.624Z,37.38
2023-04-08T08:10:55.600Z,35.10
2023-04-08T08:13:22.766Z,35.97
2023-04-08T08:15:53.591Z,34.42
2023-04-08T08:18:21.113Z,33.78
2023-04-08T08:20:47.955Z,36.03
2023-04-08T08:23:15.080Z,34.65
2023-04-08T08:25:42.178Z,33.08
2023-04-08T08:28:09.130Z,33.35
2023-04-08T08:30:36.062Z,33.10
2023-04-08T08:33:03.267Z,34.60
2023-04-08T08:35:30.135Z,33.33
2023-04-08T08:37:57.349Z,35.45
2023-04-08T08:40:24.218Z,36.47
2023-04-08T08:42:52.561Z,35.70
2023-04-08T08:45:22.770Z,35.40
2023-04-08T08:47:51.234Z,32.95
2023-04-08T08:50:18.725Z,33.92
2023-04-08T08:52:50.485Z,34.70
2023-04-08T08:55:41.334Z,34.10
2023-04-08T08:58:10.852Z,34.08
2023-04-08T09:00:41.408Z,34.42
2023-04-08T09:03:16.165Z,33.00
2023-04-08T09:05:56.252Z,33.05
2023-04-08T09:08:25.136Z,33.25
2023-04-08T09:10:53.713Z,32.45
2023-04-08T09:13:23.769Z,32.08
2023-04-08T09:16:11.277Z,33.08
2023-04-08T09:18:39.638Z,35.35
2023-04-08T09:21:08.547Z,33.78
2023-04-08T09:23:43.592Z,34.67
2023-04-08T09:26:10.909Z,35.80
2023-04-08T09:28:39.088Z,33.92
2023-04-08T09:31:28.059Z,35.40
2023-04-08T09:34:02.236Z,35.80
2023-04-08T09:36:29.351Z,34.42
2023-04-08T09:38:56.950Z,36.28
2023-04-08T09:41:24.740Z,37.92
2023-04-08T09:43:55.167Z,35.22
2023-04-08T09:46:33.693Z,38.25
2023-04-08T09:49:13.240Z,36.15
2023-04-08T09:51:53.280Z,38.58
2023-04-08T09:54:23.218Z,36.50
2023-04-08T09:57:00.906Z,36.47
2023-04-08T09:59:31.415Z,35.63
2023-04-08T10:02:04.970Z,34.63
2023-04-08T10:04:35.774Z,35.42
2023-04-08T10:07:06.641Z,36.80
2023-04-08T10:09:34.208Z,33.88
2023-04-08T10:12:03.298Z,33.10
2023-04-08T10:14:30.081Z,33.95
2023-04-08T10:17:30.676Z,33.42
2023-04-08T10:19:58.867Z,33.55
2023-04-08T10:22:28.674Z,33.30
2023-04-08T10:25:17.195Z,35.03
2023-04-08T10:27:45.470Z,33.38
2023-04-08T10:30:27.497Z,32.28
2023-04-08T10:33:02.115Z,31.05
2023-04-08T10:35:42.773Z,31.52
2023-04-08T10:38:09.835Z,33.60
2023-04-08T10:40:39.125Z,33.55
2023-04-08T10:43:07.271Z,32.95
2023-04-08T10:45:34.751Z,32.75
2023-04-08T10:48:24.821Z,29.40
2023-04-08T10:51:03.010Z,28.08
2023-04-08T10:53:33.513Z,30.42
2023-04-08T10:56:07.883Z,28.88
2023-04-08T10:58:36.553Z,28.23
2023-04-08T11:01:05.603Z,26.88
2023-04-08T11:03:34.334Z,28.75
2023-04-08T11:06:02.575Z,27.95
2023-04-08T11:08:32.447Z,30.88
2023-04-08T11:11:04.130Z,29.08
2023-04-08T11:13:31.791Z,31.27
2023-04-08T11:16:00.449Z,30.48
2023-04-08T11:18:27.869Z,28.05
2023-04-08T11:20:55.110Z,31.10
2023-04-08T11:23:23.376Z,30.63
2023-04-08T11:25:51.464Z,31.40
2023-04-08T11:28:19.101Z,29.35
2023-04-08T11:30:46.073Z,30.13
2023-04-08T11:33:14.133Z,30.67
2023-04-08T11:35:42.043Z,30.42
2023-04-08T11:38:10.499Z,30.90
2023-04-08T11:40:38.109Z,30.80
2023-04-08T11:43:12.479Z,30.00
2023-04-08T11:45:40.747Z,31.40
2023-04-08T11:48:16.760Z,33.47
2023-04-08T11:50:45.243Z,31.90
2023-04-08T11:53:21.911Z,35.08
2023-04-08T11:55:49.617Z,33.38
2023-04-08T11:58:16.867Z,33.35
2023-04-08T12:00:44.456Z,33.40
2023-04-08T12:03:12.555Z,34.78
2023-04-08T12:05:39.622Z,36.03
2023-04-08T12:08:06.639Z,35.90
2023-04-08T12:10:33.454Z,36.03
2023-04-08T12:13:00.755Z,35.28
2023-04-08T12:15:27.681Z,34.05
2023-04-08T12:17:54.491Z,33.28
2023-04-08T12:20:21.441Z,34.08
2023-04-08T12:22:48.317Z,32.90
2023-04-08T12:25:15.431Z,32.20
2023-04-08T12:27:42.328Z,31.75
2023-04-08T12:30:09.838Z,32.03
2023-04-08T12:32:36.652Z,34.20
2023-04-08T12:35:03.553Z,33.67
2023-04-08T12:37:30.631Z,33.17
2023-04-08T12:39:57.803Z,33.15
2023-04-08T12:42:24.965Z,33.03
2023-04-08T12:44:52.030Z,32.78
2023-04-08T12:47:19.775Z,31.63
2023-04-08T12:49:49.689Z,33.65
2023-04-08T12:52:17.433Z,32.20
2023-04-08T12:54:45.160Z,31.83
2023-04-08T12:57:12.646Z,31.25
2023-04-08T12:59:40.396Z,32.17
2023-04-08T13:02:08.137Z,33.13
2023-04-08T13:04:35.412Z,29.10
2023-04-08T13:07:02.510Z,30.38
2023-04-08T13:09:31.151Z,30.25
2023-04-08T13:11:58.518Z,28.35
2023-04-08T13:14:25.740Z,27.55
2023-04-08T13:16:52.709Z,23.70
2023-04-08T13:19:19.979Z,24.60
2023-04-08T13:21:47.083Z,23.25
2023-04-08T13:24:14.243Z,24.70
2023-04-08T13:26:41.392Z,22.70
2023-04-08T13:29:08.505Z,24.42
2023-04-08T13:31:35.487Z,23.42
2023-04-08T13:34:02.522Z,22.80
2023-04-08T13:36:29.462Z,26.35
2023-04-08T13:38:56.901Z,24.75
2023-04-08T13:41:25.509Z,25.73
2023-04-08T13:43:52.529Z,24.75
2023-04-08T13:46:19.356Z,25.75
2023-04-08T13:48:46.573Z,25.00
2023-04-08T13:51:13.625Z,25.98
2023-04-08T13:53:40.881Z,24.08
2023-04-08T13:56:08.269Z,25.92
2023-04-08T13:58:35.081Z,23.70
2023-04-08T14:01:01.923Z,24.92
2023-04-08T14:03:28.951Z,23.08
2023-04-08T14:05:56.196Z,29.65
2023-04-08T14:08:26.245Z,31.13
2023-04-08T14:10:55.874Z,31.95
2023-04-08T14:13:22.808Z,27.95
2023-04-08T14:15:52.640Z,27.52
2023-04-08T14:18:19.713Z,26.25
2023-04-08T14:20:46.672Z,26.38
2023-04-08T14:23:13.776Z,26.23
2023-04-08T14:25:41.183Z,25.27
2023-04-08T14:28:08.355Z,25.60
2023-04-08T14:30:37.932Z,25.70
2023-04-08T14:33:05.716Z,26.70
2023-04-08T14:35:32.703Z,26.70
2023-04-08T14:38:00.152Z,27.60
2023-04-08T14:40:27.146Z,28.92
2023-04-08T14:42:54.252Z,27.17
2023-04-08T14:45:22.152Z,27.83
2023-04-08T14:47:49.052Z,28.05
2023-04-08T14:50:16.308Z,27.33
2023-04-08T14:52:45.203Z,28.10
2023-04-08T14:55:12.640Z,26.35
2023-04-08T14:57:39.538Z,26.23
2023-04-08T15:00:07.774Z,26.80
2023-04-08T15:02:35.039Z,27.80
2023-04-08T15:05:02.206Z,25.10
2023-04-08T15:07:29.330Z,24.13
2023-04-08T15:09:57.048Z,25.45
2023-04-08T15:12:24.979Z,23.85
2023-04-08T15:14:51.895Z,22.63
2023-04-08T15:17:18.771Z,22.73
2023-04-08T15:19:46.492Z,22.00
2023-04-08T15:22:13.724Z,22.60
2023-04-08T15:24:40.876Z,24.95
2023-04-08T15:27:08.045Z,24.15
2023-04-08T15:29:35.156Z,22.15
2023-04-08T15:32:02.453Z,18.80
2023-04-08T15:34:29.452Z,18.65
2023-04-08T15:36:59.278Z,18.08
2023-04-08T15:39:26.727Z,19.13
2023-04-08T15:41:54.105Z,16.88
2023-04-08T15:44:20.960Z,16.02
2023-04-08T15:46:47.801Z,16.65
2023-04-08T15:49:15.268Z,16.00
2023-04-08T15:51:44.654Z,17.25
2023-04-08T15:54:11.862Z,15.65
2023-04-08T15:56:39.305Z,15.68
2023-04-08T15:59:06.357Z,14.45
2023-04-08T16:01:33.737Z,16.58
2023-04-08T16:04:01.163Z,16.20
2023-04-08T16:06:29.682Z,14.40
2023-04-08T16:08:57.200Z,15.57
2023-04-08T16:11:25.317Z,13.52
2023-04-08T16:13:52.722Z,13.82
2023-04-08T16:16:19.883Z,12.65
2023-04-08T16:18:47.779Z,11.82
2023-04-08T16:21:14.789Z,12.02
2023-04-08T16:23:41.949Z,10.82
2023-04-08T16:26:09.092Z,10.50
2023-04-08T16:28:40.333Z,10.23
2023-04-08T16:31:07.702Z,10.32
2023-04-08T16:33:34.490Z,9.73
2023-04-08T16:36:01.713Z,10.65
2023-04-08T16:38:28.516Z,10.25
2023-04-08T16:40:58.536Z,9.45
2023-04-08T16:43:25.939Z,9.82
2023-04-08T16:45:53.644Z,10.27
2023-04-08T16:48:20.853Z,10.02
2023-04-08T16:50:47.699Z,9.35
2023-04-08T16:53:14.542Z,8.25
2023-04-08T16:55:41.534Z,9.50
2023-04-08T16:58:08.766Z,9.80
2023-04-08T17:00:36.716Z,9.48
2023-04-08T17:03:03.947Z,9.60
2023-04-08T17:05:31.001Z,9.52
2023-04-08T17:07:57.907Z,10.85
2023-04-08T17:10:25.231Z,12.38
2023-04-08T17:12:52.125Z,13.05
2023-04-08T17:15:19.817Z,9.85
2023-04-08T17:17:47.991Z,10.00
2023-04-08T17:20:15.848Z,10.25
2023-04-08T17:22:43.130Z,9.55
2023-04-08T17:25:11.054Z,10.38
2023-04-08T17:27:37.871Z,10.75
2023-04-08T17:30:05.203Z,10.30
2023-04-08T17:32:32.552Z,10.65
2023-04-08T17:34:59.890Z,11.50
2023-04-08T17:37:27.013Z,11.32
2023-04-08T17:39:53.793Z,10.95
2023-04-08T17:42:22.976Z,11.30
2023-04-08T17:44:50.193Z,11.70
2023-04-08T17:47:17.441Z,12.52
2023-04-08T17:49:44.279Z,12.20
2023-04-08T17:52:11.122Z,11.13
2023-04-08T17:54:38.078Z,12.18
2023-04-08T17:57:05.227Z,11.85
2023-04-08T17:59:32.176Z,12.88
2023-04-08T18:01:59.073Z,12.60
2023-04-08T18:04:26.319Z,13.05
2023-04-08T18:06:53.315Z,13.38
2023-04-08T18:09:20.753Z,13.32
2023-04-08T18:11:47.765Z,13.57
2023-04-08T18:14:14.890Z,15.75
2023-04-08T18:16:42.030Z,17.88
2023-04-08T18:19:09.180Z,18.73
2023-04-08T18:21:37.062Z,16.90
2023-04-08T18:24:04.031Z,19.25
2023-04-08T18:26:33.529Z,17.67
2023-04-08T18:29:00.806Z,17.38
2023-04-08T18:31:27.918Z,17.50
2023-04-08T18:33:56.321Z,18.90
2023-04-08T18:36:23.158Z,18.90
2023-04-08T18:38:49.962Z,18.50
2023-04-08T18:41:18.542Z,21.13
2023-04-08T18:43:49.575Z,20.73
2023-04-08T18:46:17.228Z,21.58
2023-04-08T18:48:44.339Z,21.55
2023-04-08T18:51:13.648Z,21.30
2023-04-08T18:53:40.497Z,22.38
2023-04-08T18:56:15.044Z,20.88
2023-04-08T18:58:48.149Z,20.73
2023-04-08T19:01:16.408Z,23.58
2023-04-08T19:03:46.464Z,22.63
2023-04-08T19:06:13.701Z,22.23
2023-04-08T19:08:41.949Z,22.23
2023-04-08T19:11:09.081Z,23.23
2023-04-08T19:13:36.004Z,22.88
2023-04-08T19:16:03.323Z,23.08
2023-04-08T19:18:33.007Z,23.15
2023-04-08T19:21:01.803Z,23.10
2023-04-08T19:23:28.923Z,21.98
2023-04-08T19:25:56.848Z,25.08
2023-04-08T19:28:23.966Z,24.58
2023-04-08T19:30:51.341Z,23.58
2023-04-08T19:33:18.693Z,23.73
2023-04-08T19:35:48.009Z,25.00
2023-04-08T19:38:15.239Z,24.20
2023-04-08T19:40:42.416Z,24.08
2023-04-08T19:43:09.972Z,26.70
2023-04-08T19:45:36.913Z,28.05
2023-04-08T19:48:06.039Z,27.35
2023-04-08T19:50:33.300Z,27.00
2023-04-08T19:53:00.524Z,26.20
2023-04-08T19:55:37.172Z,25.60
2023-04-08T19:58:05.414Z,27.30
2023-04-08T20:00:33.845Z,26.42
2023-04-08T20:03:01.979Z,28.05
2023-04-08T20:05:29.520Z,26.77
2023-04-08T20:07:56.566Z,26.13
2023-04-08T20:10:23.913Z,26.27
2023-04-08T20:12:52.328Z,27.83
2023-04-08T20:15:24.653Z,27.45
2023-04-08T20:20:23.193Z,28.90
2023-04-08T20:22:50.579Z,28.58
2023-04-08T20:25:17.762Z,27.83
2023-04-08T20:27:45.402Z,27.55
2023-04-08T20:30:15.073Z,30.02
2023-04-08T20:32:42.342Z,26.55
2023-04-08T20:35:09.604Z,26.45
2023-04-08T20:37:37.203Z,26.60
2023-04-08T20:40:04.646Z,25.67
2023-04-08T20:42:31.630Z,26.92
2023-04-08T20:45:00.714Z,27.65
2023-04-08T20:47:27.559Z,28.48
2023-04-08T20:49:54.400Z,26.55
2023-04-08T20:52:21.561Z,28.92
2023-04-08T20:54:48.712Z,29.10
2023-04-08T20:57:16.032Z,26.83
2023-04-08T20:59:42.969Z,26.92
2023-04-08T21:02:11.590Z,28.10
2023-04-08T21:04:41.166Z,29.00
2023-04-08T21:07:08.412Z,27.27
2023-04-08T21:09:35.661Z,28.08
2023-04-08T21:12:08.989Z,29.58
2023-04-08T21:14:36.551Z,29.45
2023-04-08T21:17:14.995Z,28.50
2023-04-08T21:19:42.280Z,28.38
2023-04-08T21:22:11.657Z,29.02
2023-04-08T21:24:38.815Z,26.77
2023-04-08T21:27:06.375Z,27.13
2023-04-08T21:29:33.589Z,27.25
2023-04-08T21:32:01.479Z,27.05
2023-04-08T21:34:28.313Z,27.08
2023-04-08T21:36:55.063Z,27.83
2023-04-08T21:39:22.330Z,27.88
2023-04-08T21:41:49.529Z,27.55
2023-04-08T21:44:16.628Z,28.33
2023-04-08T21:46:43.858Z,26.48
2023-04-08T21:49:11.776Z,29.48
2023-04-08T21:51:39.522Z,26.33
2023-04-08T21:54:07.157Z,27.13
2023-04-08T21:56:33.989Z,26.60
2023-04-08T21:59:00.867Z,27.67
2023-04-08T22:01:28.071Z,28.13
2023-04-08T22:03:55.700Z,27.90
2023-04-08T22:06:31.515Z,27.25
2023-04-08T22:08:59.738Z,28.27
2023-04-08T22:11:26.611Z,27.48
2023-04-08T22:13:53.778Z,27.20
2023-04-08T22:16:20.783Z,26.90
2023-04-08T22:18:47.750Z,28.00
2023-04-08T22:21:14.604Z,28.73
2023-04-08T22:23:42.226Z,28.20
2023-04-08T22:26:09.112Z,28.02
2023-04-08T22:28:36.099Z,27.58
2023-04-08T22:31:03.267Z,26.20
2023-04-08T22:33:30.412Z,27.77
2023-04-08T22:35:58.165Z,26.48
2023-04-08T22:38:25.041Z,25.98
2023-04-08T22:40:53.395Z,26.83
2023-04-08T22:43:20.994Z,24.63
2023-04-08T22:45:47.818Z,26.73
2023-04-08T22:48:14.863Z,25.92
2023-04-08T22:50:42.616Z,26.17
2023-04-08T22:53:09.711Z,25.83
2023-04-08T22:55:36.566Z,25.50
2023-04-08T22:58:03.816Z,27.13
2023-04-08T23:00:30.900Z,27.33
2023-04-08T23:02:58.280Z,29.27
2023-04-08T23:05:25.461Z,27.92
2023-04-08T23:07:52.635Z,27.73
2023-04-08T23:10:19.877Z,28.13
2023-04-08T23:12:46.806Z,28.35
2023-04-08T23:15:13.935Z,31.65
2023-04-08T23:17:41.118Z,28.27
2023-04-08T23:20:08.870Z,32.08
2023-04-08T23:22:35.806Z,31.95
2023-04-08T23:25:02.732Z,30.27
2023-04-08T23:27:29.634Z,33.67
2023-04-08T23:29:56.483Z,39.17
2023-04-08T23:32:23.435Z,37.70
2023-04-08T23:34:50.661Z,33.72
2023-04-08T23:37:18.013Z,35.70
2023-04-08T23:39:45.062Z,35.13
2023-04-08T23:42:11.873Z,38.33
2023-04-08T23:44:38.649Z,38.70
2023-04-08T23:47:08.280Z,39.10
2023-04-08T23:49:35.706Z,38.20
2023-04-08T23:52:02.656Z,38.60
2023-04-08T23:54:32.802Z,37.22
2023-04-08T23:57:01.681Z,37.65
2023-04-08T23:59:31.339Z,38.00
